Terminal Aerodrome Forecast
Issued by NWS

Home | Current Version | Previous Version | Text Only | Print | Product List | Glossary On
Versions: 1 2 3 4 5 6 7 8 9 10 11 12 13 14 15 16 17 18
000
FTUS43 KICT 231406 AAA
TAFCNU
TAF AMD
KCNU 231406Z 2314/2412 31012KT P6SM OVC010
     FM231600 32008KT P6SM SCT150
     FM240000 30004KT P6SM SCT250
      AMD NOT SKED=

USA.gov is the U.S. government's official web portal to all federal, state and local government web resources and services.